createdAt,value
2018-07-26T00:01:27.557Z,3.97
2018-07-26T00:03:55.628Z,4.00
2018-07-26T00:06:23.719Z,4.00
2018-07-26T00:08:51.932Z,3.90
2018-07-26T00:11:20.045Z,3.80
2018-07-26T00:13:48.186Z,4.00
2018-07-26T00:16:16.289Z,4.10
2018-07-26T00:18:44.400Z,3.70
2018-07-26T00:21:12.485Z,4.00
2018-07-26T00:23:40.607Z,4.17
2018-07-26T00:26:08.816Z,3.83
2018-07-26T00:28:36.972Z,3.97
2018-07-26T00:31:05.133Z,3.97
2018-07-26T00:33:33.251Z,3.67
2018-07-26T00:36:01.353Z,3.93
2018-07-26T00:38:29.445Z,3.70
2018-07-26T00:40:57.500Z,4.10
2018-07-26T00:43:25.590Z,4.10
2018-07-26T00:45:53.672Z,4.20
2018-07-26T00:48:21.768Z,3.80
2018-07-26T00:50:49.861Z,4.00
2018-07-26T00:53:17.989Z,3.50
2018-07-26T00:55:46.058Z,3.87
2018-07-26T00:58:14.128Z,3.73
2018-07-26T01:00:42.031Z,3.80
2018-07-26T01:03:10.095Z,3.67
2018-07-26T01:05:38.168Z,3.80
2018-07-26T01:08:06.284Z,3.70
2018-07-26T01:10:34.418Z,3.80
2018-07-26T01:13:02.527Z,3.97
2018-07-26T01:15:30.629Z,3.70
2018-07-26T01:17:58.887Z,3.67
2018-07-26T01:20:26.973Z,3.90
2018-07-26T01:22:55.059Z,3.67
2018-07-26T01:25:23.132Z,3.60
2018-07-26T01:27:51.220Z,3.80
2018-07-26T01:30:19.307Z,3.87
2018-07-26T01:32:47.364Z,3.70
2018-07-26T01:35:15.529Z,3.40
2018-07-26T01:37:43.633Z,3.83
2018-07-26T01:40:11.704Z,3.50
2018-07-26T01:43:51.519Z,3.73
2018-07-26T01:46:20.780Z,3.60
2018-07-26T01:48:48.878Z,3.70
2018-07-26T01:51:16.972Z,3.87
2018-07-26T01:53:45.484Z,3.90
2018-07-26T01:56:13.558Z,3.70
2018-07-26T01:58:41.668Z,3.57
2018-07-26T02:01:10.896Z,3.43
2018-07-26T02:03:39.387Z,3.70
2018-07-26T02:06:07.991Z,3.23
2018-07-26T02:08:35.948Z,3.33
2018-07-26T02:11:04.332Z,3.50
2018-07-26T02:13:33.036Z,3.67
2018-07-26T02:16:01.108Z,3.17
2018-07-26T02:18:29.170Z,3.17
2018-07-26T02:20:57.308Z,3.30
2018-07-26T02:23:25.796Z,3.50
2018-07-26T02:25:54.272Z,3.20
2018-07-26T02:28:22.389Z,3.27
2018-07-26T02:30:50.499Z,3.50
2018-07-26T02:33:18.586Z,3.30
2018-07-26T02:35:46.737Z,3.30
2018-07-26T02:38:14.830Z,3.10
2018-07-26T02:40:42.916Z,3.30
2018-07-26T02:43:11.879Z,3.40
2018-07-26T02:45:40.172Z,3.40
2018-07-26T02:48:08.593Z,3.20
2018-07-26T02:50:36.711Z,3.33
2018-07-26T02:53:04.845Z,3.03
2018-07-26T02:55:33.089Z,3.33
2018-07-26T02:58:01.789Z,3.17
2018-07-26T03:00:29.871Z,3.50
2018-07-26T03:02:57.961Z,3.17
2018-07-26T03:05:26.077Z,3.17
2018-07-26T03:07:54.165Z,3.53
2018-07-26T03:10:22.235Z,3.10
2018-07-26T03:12:50.304Z,3.63
2018-07-26T03:15:18.381Z,3.20
2018-07-26T03:17:46.441Z,3.50
2018-07-26T03:20:14.578Z,2.93
2018-07-26T03:22:42.641Z,2.73
2018-07-26T03:25:10.720Z,3.00
2018-07-26T03:27:38.924Z,3.00
2018-07-26T03:30:07.697Z,3.20
2018-07-26T03:32:35.804Z,3.33
2018-07-26T03:35:03.984Z,3.20
2018-07-26T03:37:32.064Z,3.50
2018-07-26T03:40:00.136Z,3.33
2018-07-26T03:42:28.277Z,3.20
2018-07-26T03:44:56.364Z,3.00
2018-07-26T03:47:24.432Z,2.83
2018-07-26T03:49:52.512Z,3.50
2018-07-26T03:52:20.589Z,3.60
2018-07-26T03:54:48.662Z,3.20
2018-07-26T03:57:16.878Z,3.60
2018-07-26T03:59:44.962Z,3.00
2018-07-26T04:02:13.057Z,3.27
2018-07-26T04:04:41.148Z,3.20
2018-07-26T04:07:09.251Z,3.17
2018-07-26T04:09:37.413Z,3.33
2018-07-26T04:12:05.484Z,3.30
2018-07-26T04:14:33.957Z,3.13
2018-07-26T04:17:02.260Z,3.00
2018-07-26T04:19:30.512Z,3.23
2018-07-26T04:21:58.575Z,3.23
2018-07-26T04:24:26.626Z,3.20
2018-07-26T04:26:54.761Z,3.00
2018-07-26T04:29:22.913Z,2.90
2018-07-26T04:31:51.052Z,3.43
2018-07-26T04:34:19.047Z,3.07
2018-07-26T04:36:47.119Z,3.33
2018-07-26T04:39:15.199Z,3.00
2018-07-26T04:41:43.313Z,3.20
2018-07-26T04:44:11.410Z,3.10
2018-07-26T04:46:39.496Z,3.30
2018-07-26T04:49:07.668Z,3.03
2018-07-26T04:51:35.825Z,3.10
2018-07-26T04:54:04.023Z,2.90
2018-07-26T04:56:32.189Z,3.10
2018-07-26T04:59:00.272Z,3.37
2018-07-26T05:01:28.372Z,3.33
2018-07-26T05:03:56.456Z,3.23
2018-07-26T05:06:24.560Z,3.13
2018-07-26T05:08:52.684Z,3.30
2018-07-26T05:11:20.786Z,3.47
2018-07-26T05:13:48.892Z,3.00
2018-07-26T05:16:16.979Z,3.10
2018-07-26T05:18:45.047Z,3.20
2018-07-26T05:21:13.298Z,3.20
2018-07-26T05:23:41.527Z,3.00
2018-07-26T05:26:09.684Z,3.20
2018-07-26T05:28:38.700Z,2.90
2018-07-26T05:31:06.920Z,3.17
2018-07-26T05:33:35.304Z,2.90
2018-07-26T05:36:03.432Z,3.10
2018-07-26T05:38:32.462Z,2.97
2018-07-26T05:41:00.600Z,2.97
2018-07-26T05:43:28.721Z,3.17
2018-07-26T05:45:56.791Z,2.90
2018-07-26T05:48:24.967Z,3.03
2018-07-26T05:50:53.176Z,3.10
2018-07-26T05:53:21.452Z,2.80
2018-07-26T05:55:49.492Z,2.90
2018-07-26T05:58:17.633Z,2.80
2018-07-26T06:00:45.872Z,2.70
2018-07-26T06:03:14.148Z,2.80
2018-07-26T06:05:42.228Z,3.10
2018-07-26T06:08:10.540Z,2.83
2018-07-26T06:10:38.752Z,2.73
2018-07-26T06:13:07.149Z,2.70
2018-07-26T06:15:35.605Z,3.03
2018-07-26T06:18:03.733Z,2.90
2018-07-26T06:20:32.555Z,3.07
2018-07-26T06:23:01.496Z,2.97
2018-07-26T06:25:29.557Z,2.97
2018-07-26T06:27:57.888Z,2.83
2018-07-26T06:30:26.009Z,2.60
2018-07-26T06:32:54.088Z,2.93
2018-07-26T06:35:22.158Z,3.07
2018-07-26T06:37:50.336Z,2.80
2018-07-26T06:40:18.429Z,3.10
2018-07-26T06:42:46.554Z,3.00
2018-07-26T06:45:14.786Z,2.90
2018-07-26T06:47:42.924Z,2.63
2018-07-26T06:50:12.796Z,2.77
2018-07-26T06:52:41.629Z,3.00
2018-07-26T06:55:10.115Z,3.03
2018-07-26T06:57:38.630Z,2.70
2018-07-26T07:00:08.292Z,2.97
2018-07-26T07:02:36.430Z,2.97
2018-07-26T07:05:04.640Z,2.87
2018-07-26T07:07:32.888Z,3.00
2018-07-26T07:10:01.147Z,3.00
2018-07-26T07:12:29.228Z,2.67
2018-07-26T07:14:57.439Z,2.90
2018-07-26T07:17:25.690Z,2.57
2018-07-26T07:19:53.834Z,2.90
2018-07-26T07:22:21.970Z,2.87
2018-07-26T07:24:50.047Z,2.50
2018-07-26T07:27:18.142Z,2.90
2018-07-26T07:29:46.220Z,2.50
2018-07-26T07:32:14.339Z,2.50
2018-07-26T07:34:42.944Z,2.40
2018-07-26T07:37:11.255Z,2.77
2018-07-26T07:39:39.342Z,2.50
2018-07-26T07:42:07.865Z,2.70
2018-07-26T07:44:36.013Z,2.60
2018-07-26T07:47:04.112Z,2.60
2018-07-26T07:49:32.346Z,2.53
2018-07-26T07:52:00.450Z,2.40
2018-07-26T07:54:28.516Z,2.50
2018-07-26T07:56:56.655Z,2.33
2018-07-26T07:59:24.828Z,2.50
2018-07-26T08:01:52.897Z,2.40
2018-07-26T08:04:20.996Z,2.30
2018-07-26T08:06:49.296Z,2.40
2018-07-26T08:09:17.364Z,2.40
2018-07-26T08:11:45.520Z,2.40
2018-07-26T08:14:13.600Z,2.43
2018-07-26T08:16:41.687Z,2.27
2018-07-26T08:19:09.777Z,2.43
2018-07-26T08:21:37.974Z,2.30
2018-07-26T08:24:06.213Z,2.10
2018-07-26T08:26:34.359Z,2.10
2018-07-26T08:29:02.452Z,2.30
2018-07-26T08:31:30.775Z,2.20
2018-07-26T08:33:59.182Z,2.10
2018-07-26T08:36:27.268Z,2.23
2018-07-26T08:38:55.343Z,2.40
2018-07-26T08:41:23.291Z,2.27
2018-07-26T08:43:51.368Z,2.00
2018-07-26T08:46:19.878Z,2.10
2018-07-26T08:48:47.956Z,2.20
2018-07-26T08:51:16.193Z,2.40
2018-07-26T08:53:44.445Z,2.03
2018-07-26T08:56:12.387Z,2.30
2018-07-26T08:58:40.513Z,2.13
2018-07-26T09:01:08.502Z,1.83
2018-07-26T09:03:36.584Z,2.20
2018-07-26T09:06:04.759Z,2.20
2018-07-26T09:08:32.918Z,2.20
2018-07-26T09:11:01.076Z,2.20
2018-07-26T09:13:29.212Z,2.10
2018-07-26T09:15:57.238Z,2.30
2018-07-26T09:18:25.330Z,2.10
2018-07-26T09:20:53.464Z,2.40
2018-07-26T09:23:21.748Z,2.60
2018-07-26T09:25:49.896Z,2.30
2018-07-26T09:28:17.987Z,2.30
2018-07-26T09:30:46.063Z,2.10
2018-07-26T09:33:14.243Z,2.40
2018-07-26T09:35:42.341Z,2.23
2018-07-26T09:38:10.416Z,2.23
2018-07-26T09:40:38.660Z,2.40
2018-07-26T09:43:06.856Z,2.37
2018-07-26T09:45:35.039Z,2.37
2018-07-26T09:48:03.667Z,2.40
2018-07-26T09:50:31.777Z,2.20
2018-07-26T09:52:59.864Z,2.30
2018-07-26T09:55:27.972Z,2.63
2018-07-26T09:57:56.235Z,2.33
2018-07-26T10:01:30.739Z,2.20
2018-07-26T10:03:59.703Z,2.40
2018-07-26T10:06:28.286Z,2.33
2018-07-26T10:08:56.431Z,2.30
2018-07-26T10:11:25.303Z,2.40
2018-07-26T10:13:53.521Z,2.10
2018-07-26T10:16:21.657Z,2.40
2018-07-26T10:18:49.804Z,2.10
2018-07-26T10:21:17.881Z,2.40
2018-07-26T10:23:45.945Z,2.43
2018-07-26T10:26:14.292Z,2.20
2018-07-26T10:28:42.384Z,2.50
2018-07-26T10:31:10.560Z,2.43
2018-07-26T10:33:38.640Z,2.40
2018-07-26T10:36:06.750Z,2.70
2018-07-26T10:38:35.036Z,2.80
2018-07-26T10:41:03.292Z,2.70
2018-07-26T10:43:31.421Z,2.80
2018-07-26T10:45:59.552Z,2.63
2018-07-26T10:48:27.639Z,2.53
2018-07-26T10:50:55.775Z,2.67
2018-07-26T10:53:23.895Z,2.50
2018-07-26T10:55:52.079Z,2.70
2018-07-26T10:58:20.248Z,2.40
2018-07-26T11:00:48.418Z,2.60
2018-07-26T11:03:23.660Z,2.50
2018-07-26T11:05:51.840Z,2.67
2018-07-26T11:08:20.376Z,2.67
2018-07-26T11:10:48.483Z,2.50
2018-07-26T11:13:16.585Z,2.40
2018-07-26T11:15:44.776Z,2.70
2018-07-26T11:18:12.851Z,2.60
2018-07-26T11:20:40.985Z,2.50
2018-07-26T11:23:09.085Z,2.80
2018-07-26T11:25:37.239Z,2.73
2018-07-26T11:28:06.092Z,2.70
2018-07-26T11:30:34.031Z,2.83
2018-07-26T11:33:02.268Z,2.57
2018-07-26T11:35:30.414Z,2.57
2018-07-26T11:37:58.570Z,2.63
2018-07-26T11:40:26.692Z,2.57
2018-07-26T11:42:54.791Z,2.93
2018-07-26T11:45:22.896Z,2.63
2018-07-26T11:47:50.984Z,2.77
2018-07-26T11:50:23.928Z,2.70
2018-07-26T11:52:52.325Z,2.70
2018-07-26T11:55:20.367Z,2.80
2018-07-26T11:57:48.854Z,2.90
2018-07-26T12:00:17.043Z,2.97
2018-07-26T12:02:45.712Z,2.87
2018-07-26T12:05:14.037Z,3.40
2018-07-26T12:07:42.141Z,3.47
2018-07-26T12:10:11.325Z,3.33
2018-07-26T12:12:39.415Z,3.17
2018-07-26T12:15:07.496Z,3.13
2018-07-26T12:17:35.622Z,3.50
2018-07-26T12:20:04.197Z,3.67
2018-07-26T12:22:32.283Z,4.00
2018-07-26T12:25:00.405Z,3.80
2018-07-26T12:27:28.480Z,3.87
2018-07-26T12:29:56.572Z,3.70
2018-07-26T12:32:24.760Z,3.40
2018-07-26T12:34:52.966Z,4.10
2018-07-26T12:37:21.129Z,3.70
2018-07-26T12:39:49.232Z,3.87
2018-07-26T12:42:17.401Z,3.90
2018-07-26T12:44:45.529Z,3.97
2018-07-26T12:47:13.668Z,3.70
2018-07-26T12:49:41.760Z,3.53
2018-07-26T12:52:12.160Z,3.87
2018-07-26T12:54:40.274Z,3.90
2018-07-26T12:57:08.339Z,3.63
2018-07-26T12:59:36.466Z,3.80
2018-07-26T13:02:04.577Z,3.93
2018-07-26T13:04:32.648Z,3.60
2018-07-26T13:07:00.767Z,3.57
2018-07-26T13:09:28.885Z,3.90
2018-07-26T13:11:57.040Z,4.10
2018-07-26T13:14:25.204Z,3.53
2018-07-26T13:16:53.322Z,3.83
2018-07-26T13:19:21.436Z,3.90
2018-07-26T13:21:49.816Z,4.00
2018-07-26T13:24:17.948Z,3.40
2018-07-26T13:26:46.198Z,3.97
2018-07-26T13:29:14.358Z,3.77
2018-07-26T13:31:42.434Z,3.83
2018-07-26T13:34:10.754Z,4.10
2018-07-26T13:36:38.970Z,4.07
2018-07-26T13:39:09.672Z,4.20
2018-07-26T13:41:37.785Z,4.00
2018-07-26T13:44:06.041Z,3.57
2018-07-26T13:46:34.112Z,3.90
2018-07-26T13:49:02.375Z,4.00
2018-07-26T13:51:30.467Z,4.00
2018-07-26T13:53:58.575Z,3.80
2018-07-26T13:56:26.703Z,4.03
2018-07-26T13:58:54.778Z,4.40
2018-07-26T14:01:22.869Z,3.73
2018-07-26T14:03:51.048Z,4.20
2018-07-26T14:06:19.136Z,4.40
2018-07-26T14:08:47.263Z,4.60
2018-07-26T14:11:15.347Z,4.63
2018-07-26T14:13:43.440Z,4.70
2018-07-26T14:16:11.516Z,4.27
2018-07-26T14:18:39.589Z,4.73
2018-07-26T14:21:07.776Z,4.30
2018-07-26T14:23:38.578Z,4.53
2018-07-26T14:26:08.397Z,4.73
2018-07-26T14:28:36.538Z,5.37
2018-07-26T14:31:04.661Z,4.77
2018-07-26T14:33:32.745Z,4.67
2018-07-26T14:36:00.900Z,4.67
2018-07-26T14:38:29.049Z,4.60
2018-07-26T14:40:57.165Z,4.70
2018-07-26T14:43:25.512Z,4.90
2018-07-26T14:45:53.672Z,4.57
2018-07-26T14:48:21.755Z,4.53
2018-07-26T14:50:49.835Z,4.90
2018-07-26T14:53:18.132Z,4.57
2018-07-26T14:55:46.217Z,4.40
2018-07-26T14:58:14.299Z,5.10
2018-07-26T15:00:42.396Z,4.97
2018-07-26T15:03:11.399Z,4.90
2018-07-26T15:05:39.580Z,4.40
2018-07-26T15:08:07.672Z,4.60
2018-07-26T15:10:35.785Z,5.07
2018-07-26T15:13:03.924Z,4.90
2018-07-26T15:15:32.042Z,4.87
2018-07-26T15:18:00.148Z,4.90
2018-07-26T15:20:28.359Z,4.67
2018-07-26T15:22:56.458Z,4.80
2018-07-26T15:25:25.582Z,4.57
2018-07-26T15:27:55.004Z,5.20
2018-07-26T15:30:23.434Z,5.23
2018-07-26T15:32:52.369Z,5.87
2018-07-26T15:35:20.414Z,4.93
2018-07-26T15:37:49.106Z,5.97
2018-07-26T15:40:17.405Z,5.57
2018-07-26T15:42:45.719Z,5.50
2018-07-26T15:45:13.956Z,5.80
2018-07-26T15:47:42.083Z,5.10
2018-07-26T15:50:10.039Z,5.30
2018-07-26T15:52:38.165Z,5.67
2018-07-26T15:55:06.264Z,5.70
2018-07-26T15:57:34.433Z,5.40
2018-07-26T16:00:02.621Z,5.70
2018-07-26T16:02:30.716Z,5.57
2018-07-26T16:04:58.892Z,5.43
2018-07-26T16:07:27.009Z,5.77
2018-07-26T16:09:55.161Z,5.73
2018-07-26T16:12:23.320Z,6.10
2018-07-26T16:14:51.696Z,6.30
2018-07-26T16:17:19.820Z,5.63
2018-07-26T16:19:47.891Z,5.57
2018-07-26T16:22:15.973Z,5.97
2018-07-26T16:24:44.085Z,9.90
2018-07-26T16:27:12.257Z,8.63
2018-07-26T16:29:40.593Z,6.87
2018-07-26T16:32:08.897Z,6.80
2018-07-26T16:34:37.135Z,7.53
2018-07-26T16:37:05.220Z,6.87
2018-07-26T16:39:33.333Z,6.50
2018-07-26T16:42:01.443Z,6.50
2018-07-26T16:44:29.611Z,6.53
2018-07-26T16:46:57.756Z,6.40
2018-07-26T16:49:28.033Z,6.17
2018-07-26T16:51:56.332Z,6.53
2018-07-26T16:54:24.482Z,5.90
2018-07-26T16:56:52.652Z,6.60
2018-07-26T16:59:20.814Z,5.90
2018-07-26T17:01:48.896Z,5.70
2018-07-26T17:04:17.016Z,6.23
2018-07-26T17:06:45.077Z,6.03
2018-07-26T17:09:13.152Z,5.90
2018-07-26T17:11:41.281Z,5.93
2018-07-26T17:14:09.403Z,6.20
2018-07-26T17:16:37.534Z,5.97
2018-07-26T17:19:05.649Z,5.83
2018-07-26T17:21:33.734Z,6.23
2018-07-26T17:24:01.801Z,6.40
2018-07-26T17:26:29.933Z,5.90
2018-07-26T17:28:58.046Z,5.77
2018-07-26T17:31:26.146Z,5.80
2018-07-26T17:33:54.491Z,5.40
2018-07-26T17:36:22.715Z,5.37
2018-07-26T17:38:50.810Z,5.73
2018-07-26T17:41:18.920Z,5.67
2018-07-26T17:43:47.221Z,5.40
2018-07-26T17:46:15.240Z,5.70
2018-07-26T17:48:43.333Z,5.80
2018-07-26T17:51:11.523Z,6.00
2018-07-26T17:53:39.532Z,5.70
2018-07-26T17:56:08.029Z,5.70
2018-07-26T17:58:36.132Z,6.27
2018-07-26T18:01:04.248Z,6.37
2018-07-26T18:03:32.311Z,5.97
2018-07-26T18:06:00.456Z,5.90
2018-07-26T18:08:28.784Z,5.70
2018-07-26T18:10:56.924Z,6.03
2018-07-26T18:13:25.025Z,6.00
2018-07-26T18:15:53.200Z,5.53
2018-07-26T18:18:21.288Z,5.30
2018-07-26T18:20:49.352Z,6.13
2018-07-26T18:23:17.455Z,5.67
2018-07-26T18:25:45.741Z,6.27
2018-07-26T18:28:13.844Z,5.43
2018-07-26T18:30:41.960Z,5.83
2018-07-26T18:33:10.012Z,5.80
2018-07-26T18:35:38.100Z,5.53
2018-07-26T18:38:06.325Z,5.53
2018-07-26T18:40:34.172Z,5.30
2018-07-26T18:43:02.283Z,5.70
2018-07-26T18:45:30.365Z,5.63
2018-07-26T18:47:58.489Z,5.40
2018-07-26T18:50:26.572Z,5.60
2018-07-26T18:52:54.740Z,5.33
2018-07-26T18:55:22.799Z,5.57
2018-07-26T18:57:50.928Z,5.33
2018-07-26T19:00:18.992Z,5.30
2018-07-26T19:02:47.092Z,5.50
2018-07-26T19:05:15.246Z,4.87
2018-07-26T19:07:43.332Z,5.63
2018-07-26T19:10:12.116Z,5.40
2018-07-26T19:12:40.219Z,5.40
2018-07-26T19:15:10.953Z,5.40
2018-07-26T19:17:39.016Z,5.33
2018-07-26T19:20:08.880Z,5.00
2018-07-26T19:22:37.354Z,5.37
2018-07-26T19:25:06.006Z,5.53
2018-07-26T19:27:34.089Z,5.03
2018-07-26T19:30:02.238Z,5.10
2018-07-26T19:32:30.346Z,4.83
2018-07-26T19:34:58.290Z,5.00
2018-07-26T19:37:26.416Z,5.30
2018-07-26T19:39:54.528Z,5.10
2018-07-26T19:42:22.675Z,5.40
2018-07-26T19:44:50.748Z,5.07
2018-07-26T19:47:18.817Z,5.40
2018-07-26T19:49:46.926Z,5.40
2018-07-26T19:52:15.020Z,5.77
2018-07-26T19:54:43.096Z,5.10
2018-07-26T19:57:11.214Z,5.07
2018-07-26T19:59:39.336Z,5.17
2018-07-26T20:02:07.673Z,5.37
2018-07-26T20:04:35.931Z,5.30
2018-07-26T20:07:04.068Z,5.27
2018-07-26T20:09:32.158Z,5.27
2018-07-26T20:12:00.504Z,4.97
2018-07-26T20:14:28.711Z,5.13
2018-07-26T20:16:57.261Z,4.97
2018-07-26T20:19:25.513Z,4.97
2018-07-26T20:21:53.911Z,5.40
2018-07-26T20:24:22.168Z,5.13
2018-07-26T20:26:50.330Z,4.83
2018-07-26T20:29:18.638Z,5.00
2018-07-26T20:31:46.866Z,5.10
2018-07-26T20:34:15.003Z,5.10
2018-07-26T20:36:43.165Z,5.30
2018-07-26T20:39:13.297Z,5.33
2018-07-26T20:41:41.514Z,5.10
2018-07-26T20:44:10.428Z,5.17
2018-07-26T20:46:38.883Z,5.30
2018-07-26T20:49:07.185Z,5.00
2018-07-26T20:51:35.476Z,5.20
2018-07-26T20:54:03.606Z,5.40
2018-07-26T20:56:31.692Z,5.13
2018-07-26T20:59:00.017Z,5.17
2018-07-26T21:01:28.192Z,5.27
2018-07-26T21:03:56.468Z,5.37
2018-07-26T21:06:24.704Z,5.33
2018-07-26T21:08:52.852Z,5.33
2018-07-26T21:11:21.142Z,5.47
2018-07-26T21:13:49.308Z,5.13
2018-07-26T21:16:17.697Z,4.67
2018-07-26T21:18:45.939Z,5.00
2018-07-26T21:21:14.015Z,5.07
2018-07-26T21:23:42.087Z,5.20
2018-07-26T21:26:10.165Z,5.30
2018-07-26T21:28:38.230Z,5.37
2018-07-26T21:31:06.544Z,5.40
2018-07-26T21:33:34.767Z,5.30
2018-07-26T21:36:02.816Z,5.40
2018-07-26T21:38:30.893Z,5.30
2018-07-26T21:40:59.025Z,5.30
2018-07-26T21:43:27.140Z,4.70
2018-07-26T21:45:55.229Z,5.23
2018-07-26T21:48:23.357Z,5.10
2018-07-26T21:50:51.456Z,5.37
2018-07-26T21:53:19.539Z,5.37
2018-07-26T21:55:47.669Z,5.07
2018-07-26T21:58:15.770Z,5.40
2018-07-26T22:00:49.368Z,4.93
2018-07-26T22:03:17.508Z,5.23
2018-07-26T22:05:45.580Z,5.73
2018-07-26T22:08:13.650Z,5.73
2018-07-26T22:10:41.720Z,5.20
2018-07-26T22:13:09.793Z,5.23
2018-07-26T22:15:38.881Z,5.30
2018-07-26T22:18:06.960Z,5.20
2018-07-26T22:20:35.048Z,5.27
2018-07-26T22:23:03.198Z,5.20
2018-07-26T22:25:31.304Z,5.50
2018-07-26T22:27:59.440Z,5.67
2018-07-26T22:30:27.545Z,5.17
2018-07-26T22:32:55.637Z,4.93
2018-07-26T22:35:23.851Z,5.47
2018-07-26T22:37:52.066Z,5.23
2018-07-26T22:40:20.241Z,5.60
2018-07-26T22:42:48.315Z,5.40
2018-07-26T22:45:16.469Z,5.37
2018-07-26T22:47:44.519Z,5.50
2018-07-26T22:50:12.565Z,5.40
2018-07-26T22:52:40.741Z,5.10
2018-07-26T22:55:09.116Z,5.50
2018-07-26T22:57:37.193Z,5.80
2018-07-26T23:00:06.080Z,5.10
2018-07-26T23:02:34.256Z,5.33
2018-07-26T23:05:02.408Z,5.23
2018-07-26T23:07:30.479Z,5.40
2018-07-26T23:09:58.754Z,5.27
2018-07-26T23:12:26.901Z,5.10
2018-07-26T23:14:54.998Z,5.47
2018-07-26T23:17:24.329Z,5.07
2018-07-26T23:19:52.534Z,5.30
2018-07-26T23:22:20.602Z,5.50
2018-07-26T23:24:48.691Z,4.93
2018-07-26T23:27:16.770Z,5.60
2018-07-26T23:29:44.846Z,5.67
2018-07-26T23:32:12.939Z,5.40
2018-07-26T23:34:41.046Z,5.40
2018-07-26T23:37:09.134Z,5.47
2018-07-26T23:39:37.190Z,5.43
2018-07-26T23:42:05.297Z,5.70
2018-07-26T23:44:33.353Z,5.67
2018-07-26T23:47:01.422Z,5.63
2018-07-26T23:49:29.491Z,5.57
2018-07-26T23:51:57.651Z,5.13
2018-07-26T23:54:25.736Z,5.60
2018-07-26T23:56:53.850Z,5.03
2018-07-26T23:59:21.992Z,5.37
